Time;durP1;ratioP1;P1;durP2;ratioP2;P2;SDS_P1;SDS_P2;PMS_P1;PMS_P2;Temp;Humidity;BMP_temperature;BMP_pressure;BME280_temperature;BME280_humidity;BME280_pressure;Samples;Min_cycle;Max_cycle;Signal;HPM_P1;HPM_P2
2021/09/19 00:02:13;;;;;;;12.33;6.73;;;13.50;97.30;;;;;;5070558;28;20699;-79
2021/09/19 00:04:38;;;;;;;9.60;6.27;;;13.50;97.30;;;;;;5069404;28;20171;-78
2021/09/19 00:07:04;;;;;;;11.10;6.10;;;13.50;97.30;;;;;;5069299;28;20240;-78
2021/09/19 00:09:29;;;;;;;10.33;5.07;;;13.50;97.30;;;;;;5069102;28;20520;-78
2021/09/19 00:11:55;;;;;;;8.93;5.70;;;13.50;97.30;;;;;;5071861;28;20644;-79
2021/09/19 00:14:21;;;;;;;9.27;5.70;;;13.50;97.30;;;;;;5072620;28;20192;-78
2021/09/19 00:16:48;;;;;;;9.90;5.80;;;13.50;97.30;;;;;;5072660;28;20687;-78
2021/09/19 00:19:14;;;;;;;14.40;6.83;;;13.50;97.30;;;;;;5072831;28;20190;-79
2021/09/19 00:21:40;;;;;;;11.00;6.40;;;13.50;97.30;;;;;;5072484;28;20778;-78
2021/09/19 00:24:06;;;;;;;9.80;6.50;;;13.50;97.30;;;;;;5072725;28;20433;-78
2021/09/19 00:26:32;;;;;;;11.77;6.47;;;13.50;97.30;;;;;;5072192;28;20452;-78
2021/09/19 00:28:57;;;;;;;14.57;6.90;;;13.50;97.30;;;;;;5072470;28;20929;-78
2021/09/19 00:31:23;;;;;;;12.77;6.93;;;13.50;97.30;;;;;;5072288;28;20729;-78
2021/09/19 00:33:49;;;;;;;12.00;6.63;;;13.50;97.30;;;;;;5072123;28;20195;-79
2021/09/19 00:36:14;;;;;;;14.83;6.17;;;13.50;97.30;;;;;;5072322;28;20872;-78
2021/09/19 00:38:40;;;;;;;9.40;6.40;;;13.50;97.30;;;;;;5072138;28;20565;-78
2021/09/19 00:41:05;;;;;;;12.07;6.60;;;13.50;97.30;;;;;;5072375;28;20187;-78
2021/09/19 00:43:31;;;;;;;13.70;6.10;;;13.40;97.30;;;;;;5072050;28;20238;-78
2021/09/19 00:45:57;;;;;;;9.60;5.70;;;13.40;97.30;;;;;;5072283;28;20669;-77
2021/09/19 00:48:22;;;;;;;11.97;6.90;;;13.40;97.30;;;;;;5068652;28;20259;-78
2021/09/19 00:50:48;;;;;;;12.50;5.97;;;13.40;97.30;;;;;;5052224;28;20183;-79
2021/09/19 00:53:15;;;;;;;8.60;5.30;;;13.40;97.30;;;;;;5052077;28;20199;-78
2021/09/19 00:55:42;;;;;;;10.13;5.27;;;13.40;97.30;;;;;;5051922;28;20229;-79
2021/09/19 00:58:11;;;;;;;14.30;6.00;;;13.40;97.30;;;;;;5052991;28;20414;-78
2021/09/19 01:00:38;;;;;;;8.07;5.40;;;13.40;97.30;;;;;;5053120;28;20403;-78
2021/09/19 01:03:04;;;;;;;9.07;6.10;;;13.40;97.30;;;;;;5053450;28;20430;-78
2021/09/19 01:05:30;;;;;;;11.70;6.10;;;13.30;97.30;;;;;;5054071;28;20417;-78
2021/09/19 01:07:56;;;;;;;9.10;5.20;;;13.40;97.30;;;;;;5053071;28;20489;-78
2021/09/19 01:10:23;;;;;;;10.00;5.50;;;13.30;97.30;;;;;;5051882;28;20548;-79
2021/09/19 01:12:54;;;;;;;10.60;5.73;;;13.30;97.30;;;;;;5051803;28;20694;-78
2021/09/19 01:15:21;;;;;;;13.87;5.63;;;13.30;97.30;;;;;;5052893;28;20441;-79
2021/09/19 01:17:47;;;;;;;10.67;5.70;;;13.30;97.30;;;;;;5051717;28;20418;-78
2021/09/19 01:20:13;;;;;;;10.03;5.30;;;13.30;97.30;;;;;;5051439;28;20413;-78
2021/09/19 01:22:41;;;;;;;11.00;5.53;;;13.30;97.30;;;;;;5050850;28;20198;-78
2021/09/19 01:25:10;;;;;;;9.73;5.73;;;13.30;97.30;;;;;;5052287;28;20403;-78
2021/09/19 01:27:36;;;;;;;13.50;5.70;;;13.30;97.30;;;;;;5051389;28;20520;-78
2021/09/19 01:30:07;;;;;;;10.37;5.17;;;13.30;97.30;;;;;;5052602;28;20403;-78
2021/09/19 01:32:33;;;;;;;11.10;6.37;;;13.30;97.30;;;;;;5051471;28;20195;-78
2021/09/19 01:34:58;;;;;;;10.20;5.70;;;13.30;97.30;;;;;;5050984;28;20989;-77
2021/09/19 01:37:24;;;;;;;12.77;5.70;;;13.30;97.30;;;;;;5051185;28;20188;-78
2021/09/19 01:39:51;;;;;;;11.70;6.17;;;13.20;97.30;;;;;;5051173;28;20229;-79
2021/09/19 01:42:17;;;;;;;11.37;5.70;;;13.20;97.30;;;;;;5051124;28;20592;-79
2021/09/19 01:44:43;;;;;;;10.93;5.80;;;13.20;97.30;;;;;;5050847;28;20581;-78
2021/09/19 01:47:08;;;;;;;9.57;4.73;;;13.20;97.30;;;;;;5051068;28;20355;-79
2021/09/19 01:49:34;;;;;;;9.47;5.40;;;13.10;97.30;;;;;;5065086;28;20183;-78
2021/09/19 01:51:59;;;;;;;11.53;5.50;;;13.10;97.30;;;;;;5072361;28;20172;-78
2021/09/19 01:54:27;;;;;;;11.43;5.37;;;13.10;97.30;;;;;;5070625;28;20216;-78
2021/09/19 01:56:53;;;;;;;8.90;5.60;;;13.10;97.30;;;;;;5070734;28;20662;-78
2021/09/19 01:59:18;;;;;;;7.73;5.27;;;13.10;97.30;;;;;;5072280;28;20417;-78
2021/09/19 02:01:44;;;;;;;11.60;5.43;;;13.10;97.30;;;;;;5070637;28;20180;-78
2021/09/19 02:04:09;;;;;;;10.40;5.00;;;13.10;97.30;;;;;;5070634;28;20202;-78
2021/09/19 02:06:35;;;;;;;7.90;4.77;;;13.10;97.30;;;;;;5070303;28;20199;-78
2021/09/19 02:09:00;;;;;;;10.00;4.77;;;13.10;97.30;;;;;;5070183;28;20244;-78
2021/09/19 02:11:27;;;;;;;7.17;4.33;;;13.10;97.30;;;;;;5070426;28;20529;-78
2021/09/19 02:13:54;;;;;;;12.93;4.60;;;13.00;97.30;;;;;;5070373;28;20195;-78
2021/09/19 02:16:22;;;;;;;7.60;4.80;;;13.00;97.30;;;;;;5070253;28;20471;-78
2021/09/19 02:18:49;;;;;;;8.47;4.13;;;13.00;97.30;;;;;;5070230;28;20931;-79
2021/09/19 02:21:16;;;;;;;9.80;4.43;;;12.90;97.30;;;;;;5070428;28;20421;-78
2021/09/19 02:23:42;;;;;;;13.70;4.80;;;12.90;97.30;;;;;;5069623;28;20433;-78
2021/09/19 02:26:07;;;;;;;10.00;4.10;;;12.90;97.30;;;;;;5070453;28;20465;-78
2021/09/19 02:28:34;;;;;;;7.40;4.50;;;12.90;97.30;;;;;;5070247;28;20421;-78
2021/09/19 02:30:59;;;;;;;8.20;3.53;;;12.80;97.30;;;;;;5070108;28;20199;-79
2021/09/19 02:33:25;;;;;;;9.37;4.30;;;12.80;97.30;;;;;;5069918;28;20480;-78
2021/09/19 02:35:50;;;;;;;8.00;4.57;;;12.80;97.30;;;;;;5069800;28;20175;-78
2021/09/19 02:38:16;;;;;;;7.23;4.43;;;12.80;97.30;;;;;;5071102;28;20183;-77
2021/09/19 02:40:42;;;;;;;6.87;4.70;;;12.80;97.30;;;;;;5069857;28;20183;-78
2021/09/19 02:43:07;;;;;;;9.83;5.00;;;12.70;97.30;;;;;;5069755;28;20716;-77
2021/09/19 02:45:33;;;;;;;10.40;5.03;;;12.70;97.30;;;;;;5069930;28;20696;-78
2021/09/19 02:47:59;;;;;;;7.73;3.77;;;12.70;97.30;;;;;;5070439;28;20171;-78
2021/09/19 02:50:26;;;;;;;8.40;4.23;;;12.60;97.30;;;;;;5071469;28;20678;-77
2021/09/19 02:52:52;;;;;;;8.60;4.10;;;12.60;97.30;;;;;;5071098;28;20201;-79
2021/09/19 02:55:20;;;;;;;13.10;5.07;;;12.60;97.30;;;;;;5069885;28;20417;-78
2021/09/19 02:57:46;;;;;;;8.93;4.03;;;12.60;97.30;;;;;;5070985;28;20413;-78
2021/09/19 03:00:15;;;;;;;10.50;5.43;;;12.60;97.30;;;;;;5071156;28;20445;-78
2021/09/19 03:02:42;;;;;;;7.73;4.80;;;12.60;97.30;;;;;;5070862;28;20426;-78
2021/09/19 03:05:08;;;;;;;10.33;4.83;;;12.60;97.30;;;;;;5069809;28;20489;-79
2021/09/19 03:07:34;;;;;;;14.13;4.77;;;12.60;97.30;;;;;;5069463;28;20468;-78
2021/09/19 03:09:59;;;;;;;8.10;4.63;;;12.60;97.30;;;;;;5070613;28;20413;-78
2021/09/19 03:12:25;;;;;;;11.50;4.37;;;12.60;97.30;;;;;;5069343;28;20226;-78
2021/09/19 03:14:51;;;;;;;11.20;5.30;;;12.60;97.30;;;;;;5068535;28;20172;-78
2021/09/19 03:17:16;;;;;;;6.47;4.50;;;12.60;97.30;;;;;;5071093;28;20263;-78
2021/09/19 03:19:42;;;;;;;9.53;4.90;;;12.60;97.30;;;;;;5069401;28;20279;-78
2021/09/19 03:22:08;;;;;;;8.60;4.30;;;12.60;97.30;;;;;;5070928;28;20187;-77
2021/09/19 03:24:33;;;;;;;7.73;4.90;;;12.60;97.30;;;;;;5069282;28;20390;-78
2021/09/19 03:26:59;;;;;;;9.97;5.10;;;12.60;97.30;;;;;;5069486;28;20234;-78
2021/09/19 03:29:25;;;;;;;10.23;4.30;;;12.60;97.30;;;;;;5070301;28;20169;-78
2021/09/19 03:31:51;;;;;;;8.23;4.33;;;12.60;97.30;;;;;;5069136;28;20171;-78
2021/09/19 03:34:16;;;;;;;25.43;5.97;;;12.60;97.30;;;;;;5069177;28;20433;-78
2021/09/19 03:36:42;;;;;;;12.40;4.70;;;12.60;97.30;;;;;;5070655;28;20183;-78
2021/09/19 03:39:07;;;;;;;14.73;5.20;;;12.50;97.30;;;;;;5069459;28;20198;-78
2021/09/19 03:41:33;;;;;;;10.23;5.03;;;12.50;97.30;;;;;;5070631;28;20190;-78
2021/09/19 03:43:59;;;;;;;7.97;4.33;;;12.40;97.30;;;;;;5068959;28;20715;-78
2021/09/19 03:46:28;;;;;;;18.23;4.67;;;12.40;97.30;;;;;;5070977;28;20199;-77
2021/09/19 03:48:53;;;;;;;15.97;5.00;;;12.30;97.30;;;;;;5065350;28;20406;-77
2021/09/19 03:51:19;;;;;;;17.10;5.20;;;12.30;97.30;;;;;;5053357;28;20422;-78
2021/09/19 03:53:45;;;;;;;8.63;4.50;;;12.30;97.30;;;;;;5055628;28;20198;-77
2021/09/19 03:56:11;;;;;;;13.50;4.77;;;12.20;97.30;;;;;;5069101;28;20425;-79
2021/09/19 03:58:37;;;;;;;15.23;5.27;;;12.10;97.30;;;;;;5072361;28;20236;-78
2021/09/19 04:01:03;;;;;;;7.27;3.83;;;12.10;97.30;;;;;;5074172;28;20401;-78
2021/09/19 04:03:28;;;;;;;10.20;4.73;;;12.00;97.30;;;;;;5072692;28;20199;-78
2021/09/19 04:05:54;;;;;;;9.90;4.40;;;11.90;97.30;;;;;;5072508;28;20571;-78
2021/09/19 04:08:20;;;;;;;8.77;4.80;;;11.90;97.30;;;;;;5074245;28;20175;-77
2021/09/19 04:10:46;;;;;;;12.00;4.60;;;11.80;97.30;;;;;;5072677;28;20207;-77
2021/09/19 04:13:11;;;;;;;9.50;5.20;;;11.70;97.30;;;;;;5073901;28;20428;-78
2021/09/19 04:15:37;;;;;;;12.30;5.07;;;11.60;97.30;;;;;;5072754;28;20197;-78
2021/09/19 04:18:04;;;;;;;8.60;4.30;;;11.60;97.30;;;;;;5073852;28;20540;-78
2021/09/19 04:20:29;;;;;;;10.70;4.87;;;11.60;97.30;;;;;;5072630;28;20167;-78
2021/09/19 04:22:55;;;;;;;7.13;4.60;;;11.50;97.30;;;;;;5073754;28;20433;-78
2021/09/19 04:25:20;;;;;;;8.83;4.73;;;11.50;97.30;;;;;;5072376;28;20590;-77
2021/09/19 04:27:46;;;;;;;8.93;4.50;;;11.50;97.30;;;;;;5072448;28;20210;-78
2021/09/19 04:30:12;;;;;;;10.70;5.40;;;11.50;97.30;;;;;;5071983;28;20171;-77
2021/09/19 04:32:38;;;;;;;8.50;4.90;;;11.40;97.30;;;;;;5071871;28;20428;-79
2021/09/19 04:35:04;;;;;;;17.80;5.20;;;11.40;97.30;;;;;;5072379;28;20955;-77
2021/09/19 04:37:30;;;;;;;10.30;4.47;;;11.40;97.30;;;;;;5072196;28;20171;-78
2021/09/19 04:39:56;;;;;;;9.90;6.23;;;11.40;97.30;;;;;;5073523;28;20405;-77
2021/09/19 04:42:22;;;;;;;9.03;5.13;;;11.40;97.30;;;;;;5071660;28;20417;-78
2021/09/19 04:44:48;;;;;;;9.83;5.40;;;11.40;97.30;;;;;;5062469;28;20714;-78
2021/09/19 04:47:14;;;;;;;10.53;5.20;;;11.40;97.30;;;;;;5064030;28;20469;-77
2021/09/19 04:49:40;;;;;;;11.93;4.63;;;11.40;97.30;;;;;;5056272;28;20411;-78
2021/09/19 04:52:06;;;;;;;9.10;4.90;;;11.40;97.30;;;;;;5056846;28;20167;-78
2021/09/19 04:54:32;;;;;;;10.67;5.40;;;11.50;97.30;;;;;;5072028;28;20817;-79
2021/09/19 04:56:58;;;;;;;8.23;5.33;;;11.50;97.30;;;;;;5071656;28;20686;-79
2021/09/19 04:59:24;;;;;;;7.67;4.50;;;11.50;97.30;;;;;;5071116;28;20421;-78
2021/09/19 05:01:50;;;;;;;12.53;5.77;;;11.50;97.30;;;;;;5072135;28;20417;-78
2021/09/19 05:04:16;;;;;;;9.53;4.90;;;11.50;97.30;;;;;;5071789;28;20190;-78
2021/09/19 05:06:42;;;;;;;13.97;5.20;;;11.50;97.30;;;;;;5071941;28;20461;-78
2021/09/19 05:09:08;;;;;;;9.20;4.97;;;11.60;97.30;;;;;;5072079;28;20417;-78
2021/09/19 05:11:34;;;;;;;13.73;5.53;;;11.60;97.30;;;;;;5069467;28;20175;-78
2021/09/19 05:13:59;;;;;;;10.83;5.10;;;11.60;97.30;;;;;;5072786;28;20660;-78
2021/09/19 05:16:26;;;;;;;10.10;5.30;;;11.60;97.30;;;;;;5071353;28;20547;-78
2021/09/19 05:18:52;;;;;;;7.83;5.00;;;11.70;97.30;;;;;;5072655;28;20174;-78
2021/09/19 05:21:17;;;;;;;9.57;5.53;;;11.70;97.30;;;;;;5071742;28;20425;-78
2021/09/19 05:23:43;;;;;;;8.53;4.87;;;11.70;97.30;;;;;;5073733;28;20939;-77
2021/09/19 05:26:09;;;;;;;7.73;4.50;;;11.70;97.30;;;;;;5073629;28;20344;-78
2021/09/19 05:28:34;;;;;;;9.57;5.70;;;11.70;97.30;;;;;;5072046;28;20260;-78
2021/09/19 05:31:00;;;;;;;12.40;5.43;;;11.80;97.30;;;;;;5072345;28;20171;-78
2021/09/19 05:33:26;;;;;;;8.10;5.03;;;11.80;97.30;;;;;;5070738;28;20678;-77
2021/09/19 05:35:51;;;;;;;11.80;4.80;;;11.80;97.30;;;;;;5071324;28;20410;-78
2021/09/19 05:38:18;;;;;;;10.00;5.20;;;11.80;97.30;;;;;;5070025;28;20550;-77
2021/09/19 05:40:44;;;;;;;7.43;4.50;;;11.80;97.30;;;;;;5069591;28;20261;-77
2021/09/19 05:43:10;;;;;;;11.13;4.80;;;11.90;97.30;;;;;;5070464;28;20967;-78
2021/09/19 05:45:36;;;;;;;8.70;4.60;;;11.90;97.30;;;;;;5070583;28;20413;-78
2021/09/19 05:48:01;;;;;;;9.00;4.80;;;11.90;97.30;;;;;;5070707;28;20210;-79
2021/09/19 05:50:27;;;;;;;7.27;4.77;;;11.90;97.30;;;;;;5056047;28;20722;-79
2021/09/19 05:52:53;;;;;;;9.77;4.73;;;11.90;97.30;;;;;;5065185;28;20291;-78
2021/09/19 05:55:19;;;;;;;8.50;4.67;;;11.90;97.30;;;;;;5071134;28;20187;-77
2021/09/19 05:57:44;;;;;;;9.23;4.57;;;11.90;97.30;;;;;;5071565;28;20219;-77
2021/09/19 06:00:11;;;;;;;10.00;5.10;;;11.90;97.30;;;;;;5071127;28;20930;-78
2021/09/19 06:02:37;;;;;;;8.77;4.10;;;11.90;97.30;;;;;;5070475;28;20201;-77
2021/09/19 06:05:03;;;;;;;9.40;4.50;;;11.90;97.30;;;;;;5072790;28;20966;-78
2021/09/19 06:07:29;;;;;;;8.63;4.50;;;12.00;97.30;;;;;;5071382;28;20509;-77
2021/09/19 06:09:54;;;;;;;7.60;4.27;;;12.00;97.30;;;;;;5070111;28;20419;-78
2021/09/19 06:12:20;;;;;;;6.93;4.20;;;12.00;97.30;;;;;;5070559;28;20214;-78
2021/09/19 06:14:46;;;;;;;7.33;4.57;;;12.00;97.30;;;;;;5070509;28;20196;-77
2021/09/19 06:17:11;;;;;;;6.97;4.63;;;12.00;97.30;;;;;;5069997;28;20220;-79
2021/09/19 06:19:37;;;;;;;7.60;3.90;;;12.00;97.30;;;;;;5070317;28;20175;-78
2021/09/19 06:22:03;;;;;;;8.73;4.20;;;12.00;97.30;;;;;;5070275;28;20445;-78
2021/09/19 06:24:30;;;;;;;9.53;4.73;;;12.00;97.30;;;;;;5070026;28;20887;-79
2021/09/19 06:27:00;;;;;;;9.63;3.90;;;12.10;97.30;;;;;;5069811;28;20479;-78
2021/09/19 06:29:27;;;;;;;13.43;4.37;;;12.10;97.30;;;;;;5070144;28;20863;-79
2021/09/19 06:31:52;;;;;;;11.73;5.00;;;12.10;97.30;;;;;;5071234;28;20899;-78
2021/09/19 06:34:18;;;;;;;9.43;4.30;;;12.10;97.30;;;;;;5070959;28;20474;-78
2021/09/19 06:36:44;;;;;;;8.70;4.63;;;12.10;97.30;;;;;;5069863;28;20559;-78
2021/09/19 06:39:10;;;;;;;8.37;4.50;;;12.10;97.30;;;;;;5069681;28;20178;-78
2021/09/19 06:41:35;;;;;;;7.30;4.00;;;12.10;97.30;;;;;;5069732;28;20175;-77
2021/09/19 06:44:01;;;;;;;9.50;4.20;;;12.10;97.30;;;;;;5070670;28;20585;-78
2021/09/19 06:46:30;;;;;;;6.00;3.73;;;12.10;97.30;;;;;;5069762;28;20650;-78
2021/09/19 06:49:00;;;;;;;5.90;3.60;;;12.10;97.30;;;;;;5059825;28;20435;-78
2021/09/19 06:51:26;;;;;;;8.37;4.30;;;12.10;97.30;;;;;;5051063;28;20480;-78
2021/09/19 06:53:52;;;;;;;6.47;3.80;;;12.00;97.30;;;;;;5049680;28;20430;-78
2021/09/19 06:56:20;;;;;;;8.40;4.30;;;12.10;97.30;;;;;;5049183;28;20473;-79
2021/09/19 06:58:46;;;;;;;7.97;4.53;;;12.00;97.30;;;;;;5050704;28;20421;-79
2021/09/19 07:01:12;;;;;;;5.87;3.40;;;12.10;97.30;;;;;;5050948;28;20402;-79
2021/09/19 07:03:37;;;;;;;6.60;3.80;;;12.10;97.30;;;;;;5049814;28;20755;-79
2021/09/19 07:06:03;;;;;;;7.93;3.60;;;12.10;97.30;;;;;;5049313;28;20579;-79
2021/09/19 07:08:28;;;;;;;9.30;4.30;;;12.10;97.30;;;;;;5049155;28;20246;-79
2021/09/19 07:10:54;;;;;;;5.80;3.60;;;12.10;97.30;;;;;;5050546;28;20494;-79
2021/09/19 07:13:23;;;;;;;10.73;4.70;;;12.10;97.30;;;;;;5052524;28;20200;-79
2021/09/19 07:15:52;;;;;;;9.07;3.90;;;12.10;97.30;;;;;;5052650;28;20237;-79
2021/09/19 07:18:22;;;;;;;7.13;4.00;;;12.10;97.30;;;;;;5054372;28;20414;-79
2021/09/19 07:20:48;;;;;;;7.43;4.17;;;12.10;97.30;;;;;;5072284;28;20421;-78
2021/09/19 07:23:14;;;;;;;8.97;4.20;;;12.10;97.30;;;;;;5070697;28;20447;-79
2021/09/19 07:25:40;;;;;;;8.27;3.70;;;12.10;97.30;;;;;;5068463;28;20893;-79
2021/09/19 07:28:06;;;;;;;6.90;4.00;;;12.10;97.30;;;;;;5063275;28;20538;-79
2021/09/19 07:30:33;;;;;;;10.67;4.50;;;12.10;97.30;;;;;;5064478;28;20497;-79
2021/09/19 07:32:59;;;;;;;6.67;3.77;;;12.20;97.30;;;;;;5059507;28;20486;-79
2021/09/19 07:35:25;;;;;;;5.57;3.40;;;12.20;97.30;;;;;;5052244;28;20414;-79
2021/09/19 07:37:51;;;;;;;7.10;3.60;;;12.20;97.30;;;;;;5054066;28;20410;-79
2021/09/19 07:40:17;;;;;;;8.37;3.83;;;12.30;97.30;;;;;;5052298;28;20486;-79
2021/09/19 07:42:43;;;;;;;7.17;4.33;;;12.30;97.30;;;;;;5050849;28;20199;-79
2021/09/19 07:45:10;;;;;;;7.90;4.00;;;12.20;97.30;;;;;;5051770;28;20433;-79
2021/09/19 07:47:36;;;;;;;8.50;3.70;;;12.30;97.30;;;;;;5052142;28;20708;-79
2021/09/19 07:50:03;;;;;;;5.97;3.93;;;12.30;97.30;;;;;;5071017;28;20414;-78
2021/09/19 07:52:29;;;;;;;5.13;3.50;;;12.30;97.30;;;;;;5071349;28;20199;-79
2021/09/19 07:54:54;;;;;;;7.00;3.80;;;12.30;97.30;;;;;;5071669;28;20429;-79
2021/09/19 07:57:24;;;;;;;6.00;4.07;;;12.30;97.30;;;;;;5071846;28;20641;-79
2021/09/19 07:59:51;;;;;;;7.10;3.83;;;12.30;97.30;;;;;;5072809;28;20384;-78
2021/09/19 08:02:17;;;;;;;7.00;3.80;;;12.30;97.30;;;;;;5073645;28;20420;-79
2021/09/19 08:04:43;;;;;;;9.10;3.87;;;12.30;97.30;;;;;;5071982;28;20428;-78
2021/09/19 08:07:09;;;;;;;7.27;3.70;;;12.30;97.30;;;;;;5071771;28;20453;-79
2021/09/19 08:09:35;;;;;;;9.20;4.00;;;12.30;97.30;;;;;;5072089;28;20190;-79
2021/09/19 08:12:01;;;;;;;6.90;4.20;;;12.30;97.30;;;;;;5071857;28;20200;-79
2021/09/19 08:14:27;;;;;;;5.43;3.37;;;12.30;97.30;;;;;;5073258;28;20433;-79
2021/09/19 08:16:52;;;;;;;5.67;3.50;;;12.30;97.30;;;;;;5072222;28;20832;-79
2021/09/19 08:19:18;;;;;;;5.57;3.40;;;12.30;97.30;;;;;;5071994;28;20931;-79
2021/09/19 08:21:45;;;;;;;10.00;4.50;;;12.40;97.30;;;;;;5072145;28;20179;-79
2021/09/19 08:24:11;;;;;;;7.90;4.10;;;12.40;97.30;;;;;;5071848;28;20444;-79
2021/09/19 08:26:38;;;;;;;5.10;4.10;;;12.50;97.30;;;;;;5072683;28;20488;-79
2021/09/19 08:29:05;;;;;;;8.20;4.50;;;12.50;97.30;;;;;;5073014;28;20883;-79
2021/09/19 08:31:30;;;;;;;6.30;3.87;;;12.50;97.30;;;;;;5072816;28;20461;-79
2021/09/19 08:33:56;;;;;;;7.37;4.10;;;12.60;97.30;;;;;;5075236;28;20440;-79
2021/09/19 08:36:22;;;;;;;9.90;4.80;;;12.60;97.30;;;;;;5075672;28;20175;-79
2021/09/19 08:38:47;;;;;;;8.40;5.10;;;12.60;97.30;;;;;;5076795;28;20233;-79
2021/09/19 08:41:17;;;;;;;10.10;5.37;;;12.60;97.30;;;;;;5075642;28;20646;-79
2021/09/19 08:43:44;;;;;;;12.80;5.00;;;12.70;97.30;;;;;;5075579;28;20237;-79
2021/09/19 08:46:10;;;;;;;10.47;4.83;;;12.70;97.30;;;;;;5075285;28;20478;-79
2021/09/19 08:48:38;;;;;;;10.17;4.30;;;12.70;97.30;;;;;;5070771;28;20780;-79
2021/09/19 08:51:04;;;;;;;7.40;3.90;;;12.70;97.30;;;;;;5056592;28;20454;-79
2021/09/19 08:53:31;;;;;;;9.67;4.23;;;12.80;97.30;;;;;;5055652;28;20426;-79
2021/09/19 08:56:00;;;;;;;12.80;4.53;;;12.80;97.30;;;;;;5055870;28;20176;-79
2021/09/19 08:58:25;;;;;;;7.87;5.27;;;12.80;97.30;;;;;;5055900;28;20418;-79
2021/09/19 09:00:51;;;;;;;14.43;4.50;;;12.90;97.30;;;;;;5056160;28;20962;-79
2021/09/19 09:03:25;;;;;;;5.90;3.70;;;12.90;97.30;;;;;;5055124;28;20203;-78
2021/09/19 09:05:54;;;;;;;8.00;4.07;;;13.00;97.30;;;;;;5055409;28;20784;-79
2021/09/19 09:08:21;;;;;;;8.20;3.53;;;13.00;97.30;;;;;;5054884;28;20430;-79
2021/09/19 09:10:49;;;;;;;6.23;3.90;;;13.00;97.30;;;;;;5055524;28;20399;-80
2021/09/19 09:13:20;;;;;;;8.70;4.30;;;13.00;97.30;;;;;;5056016;28;21121;-79
2021/09/19 09:15:49;;;;;;;8.57;4.10;;;13.10;97.30;;;;;;5056808;28;20441;-79
2021/09/19 09:18:29;;;;;;;7.40;3.40;;;13.10;97.30;;;;;;5062398;28;20421;-79
2021/09/19 09:21:04;;;;;;;7.30;3.50;;;13.10;97.30;;;;;;5069675;28;20543;-77
2021/09/19 09:23:50;;;;;;;6.50;3.10;;;13.10;97.30;;;;;;5086823;28;20440;-78
2021/09/19 09:26:37;;;;;;;5.33;3.17;;;13.10;97.30;;;;;;5077104;28;20536;-78
2021/09/19 09:29:13;;;;;;;5.10;4.07;;;13.20;97.30;;;;;;5075102;28;20408;-77
2021/09/19 09:31:45;;;;;;;7.57;4.03;;;13.20;97.30;;;;;;5090606;28;20838;-77
2021/09/19 09:34:20;;;;;;;5.70;3.60;;;13.20;97.30;;;;;;5088334;28;21063;-77
2021/09/19 09:37:02;;;;;;;9.73;3.87;;;13.20;97.30;;;;;;5089913;28;20413;-76
2021/09/19 09:39:38;;;;;;;6.80;3.93;;;13.30;97.30;;;;;;5080565;28;20409;-77
2021/09/19 09:42:08;;;;;;;7.30;3.43;;;13.30;97.30;;;;;;5077587;28;21031;-77
2021/09/19 09:44:46;;;;;;;6.77;3.73;;;13.30;97.30;;;;;;5081835;28;20448;-77
2021/09/19 09:47:20;;;;;;;17.10;8.47;;;13.30;97.30;;;;;;5067113;28;20461;-77
2021/09/19 09:50:00;;;;;;;9.47;4.73;;;13.30;97.30;;;;;;5064956;28;20422;-77
2021/09/19 09:52:25;;;;;;;9.60;3.60;;;13.30;97.30;;;;;;5059072;28;20443;-77
2021/09/19 09:54:51;;;;;;;9.07;3.33;;;13.40;97.30;;;;;;5091586;28;20776;-77
2021/09/19 09:57:32;;;;;;;6.73;3.57;;;13.30;97.30;;;;;;5080616;28;20555;-77
2021/09/19 10:00:02;;;;;;;5.87;3.60;;;13.30;97.30;;;;;;5071567;28;20178;-77
2021/09/19 10:02:28;;;;;;;7.10;3.87;;;13.30;97.30;;;;;;5070910;28;20437;-77
2021/09/19 10:04:55;;;;;;;6.67;3.30;;;13.20;97.30;;;;;;5078259;28;20473;-78
2021/09/19 10:07:21;;;;;;;6.23;3.37;;;13.30;97.30;;;;;;5093068;28;20229;-77
2021/09/19 10:09:47;;;;;;;5.97;3.47;;;13.20;97.30;;;;;;5092168;28;20906;-77
2021/09/19 10:12:13;;;;;;;6.00;3.07;;;13.30;97.30;;;;;;5072055;28;20421;-78
2021/09/19 10:14:39;;;;;;;6.80;3.57;;;13.30;97.30;;;;;;5077224;28;20444;-78
2021/09/19 10:17:04;;;;;;;6.77;3.87;;;13.30;97.30;;;;;;5085217;28;20459;-78
2021/09/19 10:19:30;;;;;;;12.70;3.40;;;13.30;97.30;;;;;;5091003;28;20174;-77
2021/09/19 10:21:59;;;;;;;5.23;3.10;;;13.30;97.30;;;;;;5074913;28;20179;-77
2021/09/19 10:24:26;;;;;;;4.87;3.00;;;13.30;97.30;;;;;;5070272;28;20471;-77
2021/09/19 10:26:54;;;;;;;5.13;2.83;;;13.30;97.30;;;;;;5077759;28;20788;-78
2021/09/19 10:29:21;;;;;;;5.47;3.03;;;13.30;97.30;;;;;;5074193;28;20414;-78
2021/09/19 10:31:46;;;;;;;9.20;3.43;;;13.20;97.30;;;;;;5085253;28;20420;-77
2021/09/19 10:34:25;;;;;;;4.07;3.17;;;13.20;97.30;;;;;;5087956;28;20433;-77
2021/09/19 10:36:53;;;;;;;5.70;3.77;;;13.20;97.30;;;;;;5066860;28;20234;-78
2021/09/19 10:39:38;;;;;;;11.63;4.03;;;13.30;97.30;;;;;;5060913;28;20428;-77
2021/09/19 10:42:16;;;;;;;6.20;3.70;;;13.30;97.30;;;;;;5066779;28;20809;-77
2021/09/19 10:44:44;;;;;;;4.97;3.07;;;13.40;97.30;;;;;;5053608;28;20453;-78
2021/09/19 10:47:11;;;;;;;6.60;3.20;;;13.40;97.30;;;;;;5052000;28;20469;-78
2021/09/19 10:49:39;;;;;;;5.10;3.47;;;13.50;97.30;;;;;;5058548;28;20405;-78
2021/09/19 10:52:07;;;;;;;8.43;3.67;;;13.50;97.30;;;;;;5061896;28;20508;-77
2021/09/19 10:54:42;;;;;;;8.50;3.63;;;13.60;97.30;;;;;;5057403;28;20444;-78
2021/09/19 10:57:32;;;;;;;5.20;2.90;;;13.60;97.30;;;;;;5060109;28;20448;-78
2021/09/19 11:00:18;;;;;;;4.50;3.00;;;13.60;97.30;;;;;;5060425;28;20422;-78
2021/09/19 11:03:04;;;;;;;8.33;5.93;;;13.60;97.30;;;;;;5069694;28;20981;-77
2021/09/19 11:05:32;;;;;;;6.53;3.60;;;13.60;97.30;;;;;;5061941;28;20788;-77
2021/09/19 11:08:10;;;;;;;7.80;3.70;;;13.70;97.30;;;;;;5075556;28;20797;-77
2021/09/19 11:11:05;;;;;;;7.77;3.27;;;13.80;97.30;;;;;;5081269;28;20416;-77
2021/09/19 11:13:38;;;;;;;4.53;3.00;;;13.80;97.30;;;;;;5066900;28;20433;-78
2021/09/19 11:16:03;;;;;;;5.50;3.40;;;13.90;97.30;;;;;;5071211;28;20414;-77
2021/09/19 11:18:42;;;;;;;6.27;3.20;;;13.90;97.30;;;;;;5070855;28;20576;-77
2021/09/19 11:21:10;;;;;;;6.43;3.60;;;13.90;97.30;;;;;;5070054;28;20228;-77
2021/09/19 11:23:45;;;;;;;4.37;3.10;;;13.90;97.00;;;;;;5089126;28;20436;-76
2021/09/19 11:26:14;;;;;;;7.53;3.70;;;13.80;96.50;;;;;;5076249;28;20499;-78
2021/09/19 11:28:41;;;;;;;5.93;3.30;;;13.80;96.90;;;;;;5089175;28;20424;-78
2021/09/19 11:31:06;;;;;;;5.73;3.10;;;13.80;97.30;;;;;;5072490;28;20437;-77
2021/09/19 11:33:33;;;;;;;5.00;3.10;;;13.80;97.30;;;;;;5067947;28;20498;-77
2021/09/19 11:36:08;;;;;;;5.90;3.10;;;13.80;97.20;;;;;;5069433;28;20206;-79
2021/09/19 11:38:38;;;;;;;5.97;3.40;;;13.80;97.30;;;;;;5070013;28;20443;-80
2021/09/19 11:41:04;;;;;;;5.27;3.30;;;13.80;97.30;;;;;;5068651;28;20906;-78
2021/09/19 11:43:36;;;;;;;4.17;3.10;;;13.80;97.30;;;;;;5069813;28;20460;-79
2021/09/19 11:46:06;;;;;;;7.87;4.13;;;13.70;97.30;;;;;;5078868;28;20918;-77
2021/09/19 11:48:32;;;;;;;7.33;3.77;;;13.70;97.30;;;;;;5077043;28;20907;-77
2021/09/19 11:50:58;;;;;;;6.03;3.90;;;13.70;97.30;;;;;;5083661;28;20429;-78
2021/09/19 11:53:24;;;;;;;5.90;3.43;;;13.70;97.30;;;;;;5085388;28;20487;-77
2021/09/19 11:55:50;;;;;;;9.53;4.30;;;13.70;97.30;;;;;;5069317;28;20428;-78
2021/09/19 11:58:17;;;;;;;7.50;4.53;;;13.70;97.30;;;;;;5080927;28;20174;-78
2021/09/19 12:00:47;;;;;;;7.27;3.60;;;13.70;97.30;;;;;;5084777;28;20235;-77
2021/09/19 12:03:15;;;;;;;8.87;3.37;;;13.70;97.30;;;;;;5073675;28;20468;-77
2021/09/19 12:05:41;;;;;;;7.00;3.63;;;13.70;97.30;;;;;;5084205;28;21014;-77
2021/09/19 12:08:07;;;;;;;7.80;3.90;;;13.70;97.30;;;;;;5074017;28;20468;-77
2021/09/19 12:10:33;;;;;;;7.23;3.30;;;13.80;97.30;;;;;;5067688;28;20754;-78
2021/09/19 12:13:17;;;;;;;7.33;3.40;;;13.80;96.10;;;;;;5087563;28;20198;-78
2021/09/19 12:15:56;;;;;;;8.90;4.10;;;13.80;97.20;;;;;;5054487;28;20178;-77
2021/09/19 12:18:25;;;;;;;5.10;3.10;;;13.90;97.20;;;;;;5053150;28;20444;-77
2021/09/19 12:20:58;;;;;;;8.50;3.60;;;13.90;96.70;;;;;;5052764;28;20811;-77
2021/09/19 12:23:25;;;;;;;6.30;3.87;;;14.00;97.00;;;;;;5052921;28;20525;-76
2021/09/19 12:25:51;;;;;;;5.10;3.80;;;14.00;96.30;;;;;;5052574;28;20421;-77
2021/09/19 12:28:31;;;;;;;5.40;3.50;;;14.10;97.30;;;;;;5064222;28;20969;-77
2021/09/19 12:30:57;;;;;;;6.87;4.40;;;14.20;96.80;;;;;;5073695;28;20409;-76
2021/09/19 12:33:22;;;;;;;4.70;3.27;;;14.30;97.30;;;;;;5072737;28;21013;-77
2021/09/19 12:35:48;;;;;;;7.77;3.43;;;14.30;96.90;;;;;;5073664;28;20187;-77
2021/09/19 12:38:16;;;;;;;5.60;3.53;;;14.40;96.20;;;;;;5071818;28;20179;-77
2021/09/19 12:40:42;;;;;;;6.00;3.67;;;14.40;97.20;;;;;;5073732;28;20553;-78
2021/09/19 12:43:13;;;;;;;6.23;3.87;;;14.40;96.60;;;;;;5072503;28;20473;-77
2021/09/19 12:45:48;;;;;;;7.53;4.83;;;14.40;96.30;;;;;;5052604;28;20230;-78